sensor_id;sensor_type;location;lat;lon;timestamp;temperature;humidity
63039;DHT22;49125;48.812;9.206;2022-07-29T00:01:33;21.00;92.90
63039;DHT22;49125;48.812;9.206;2022-07-29T00:03:58;21.00;93.10
63039;DHT22;49125;48.812;9.206;2022-07-29T00:06:24;20.90;93.20
63039;DHT22;49125;48.812;9.206;2022-07-29T00:08:49;20.90;93.30
63039;DHT22;49125;48.812;9.206;2022-07-29T00:11:15;20.80;93.50
63039;DHT22;49125;48.812;9.206;2022-07-29T00:13:41;20.80;93.60
63039;DHT22;49125;48.812;9.206;2022-07-29T00:16:06;20.80;93.70
63039;DHT22;49125;48.812;9.206;2022-07-29T00:18:32;20.80;94.00
63039;DHT22;49125;48.812;9.206;2022-07-29T00:20:58;20.80;94.20
63039;DHT22;49125;48.812;9.206;2022-07-29T00:23:23;20.70;94.30
63039;DHT22;49125;48.812;9.206;2022-07-29T00:25:49;20.70;94.50
63039;DHT22;49125;48.812;9.206;2022-07-29T00:28:14;20.70;94.50
63039;DHT22;49125;48.812;9.206;2022-07-29T00:30:40;20.70;94.50
63039;DHT22;49125;48.812;9.206;2022-07-29T00:33:08;20.70;94.50
63039;DHT22;49125;48.812;9.206;2022-07-29T00:35:34;20.60;94.60
63039;DHT22;49125;48.812;9.206;2022-07-29T00:38:17;20.60;94.60
63039;DHT22;49125;48.812;9.206;2022-07-29T00:40:43;20.60;94.70
63039;DHT22;49125;48.812;9.206;2022-07-29T00:43:09;20.60;94.80
63039;DHT22;49125;48.812;9.206;2022-07-29T00:45:35;20.60;94.90
63039;DHT22;49125;48.812;9.206;2022-07-29T00:48:02;20.50;95.10
63039;DHT22;49125;48.812;9.206;2022-07-29T00:50:28;20.50;95.50
63039;DHT22;49125;48.812;9.206;2022-07-29T00:52:54;20.40;95.50
63039;DHT22;49125;48.812;9.206;2022-07-29T00:55:20;20.40;95.50
63039;DHT22;49125;48.812;9.206;2022-07-29T00:57:46;20.40;95.50
63039;DHT22;49125;48.812;9.206;2022-07-29T01:00:18;20.40;95.60
63039;DHT22;49125;48.812;9.206;2022-07-29T01:02:45;20.40;95.90
63039;DHT22;49125;48.812;9.206;2022-07-29T01:05:14;20.50;95.80
63039;DHT22;49125;48.812;9.206;2022-07-29T01:07:41;20.50;96.10
63039;DHT22;49125;48.812;9.206;2022-07-29T01:10:09;20.50;96.00
63039;DHT22;49125;48.812;9.206;2022-07-29T01:12:35;20.50;96.10
63039;DHT22;49125;48.812;9.206;2022-07-29T01:15:03;20.50;96.20
63039;DHT22;49125;48.812;9.206;2022-07-29T01:17:58;20.50;96.20
63039;DHT22;49125;48.812;9.206;2022-07-29T01:25:45;20.50;96.30
63039;DHT22;49125;48.812;9.206;2022-07-29T01:28:33;20.50;96.30
63039;DHT22;49125;48.812;9.206;2022-07-29T01:31:02;20.60;96.10
63039;DHT22;49125;48.812;9.206;2022-07-29T01:33:30;20.60;96.10
63039;DHT22;49125;48.812;9.206;2022-07-29T01:39:11;20.50;96.20
63039;DHT22;49125;48.812;9.206;2022-07-29T01:41:43;20.50;96.40
63039;DHT22;49125;48.812;9.206;2022-07-29T01:44:20;20.50;96.40
63039;DHT22;49125;48.812;9.206;2022-07-29T01:46:52;20.40;96.30
63039;DHT22;49125;48.812;9.206;2022-07-29T01:49:22;20.40;96.50
63039;DHT22;49125;48.812;9.206;2022-07-29T01:51:56;20.40;96.60
63039;DHT22;49125;48.812;9.206;2022-07-29T01:54:29;20.30;97.10
63039;DHT22;49125;48.812;9.206;2022-07-29T01:56:56;20.20;97.00
63039;DHT22;49125;48.812;9.206;2022-07-29T01:59:23;20.10;97.30
63039;DHT22;49125;48.812;9.206;2022-07-29T02:01:52;20.00;97.60
63039;DHT22;49125;48.812;9.206;2022-07-29T02:04:19;20.00;97.50
63039;DHT22;49125;48.812;9.206;2022-07-29T02:06:47;20.00;97.70
63039;DHT22;49125;48.812;9.206;2022-07-29T02:09:14;19.90;97.70
63039;DHT22;49125;48.812;9.206;2022-07-29T02:11:44;19.90;97.90
63039;DHT22;49125;48.812;9.206;2022-07-29T02:14:14;19.90;97.90
63039;DHT22;49125;48.812;9.206;2022-07-29T02:16:40;19.80;97.90
63039;DHT22;49125;48.812;9.206;2022-07-29T02:19:08;19.80;98.00
63039;DHT22;49125;48.812;9.206;2022-07-29T02:21:35;19.80;97.90
63039;DHT22;49125;48.812;9.206;2022-07-29T02:24:01;19.80;97.80
63039;DHT22;49125;48.812;9.206;2022-07-29T02:26:29;19.80;97.90
63039;DHT22;49125;48.812;9.206;2022-07-29T02:28:57;19.80;98.00
63039;DHT22;49125;48.812;9.206;2022-07-29T02:31:26;19.90;97.90
63039;DHT22;49125;48.812;9.206;2022-07-29T02:33:56;19.80;97.90
63039;DHT22;49125;48.812;9.206;2022-07-29T02:36:23;19.80;97.90
63039;DHT22;49125;48.812;9.206;2022-07-29T02:38:50;19.90;97.90
63039;DHT22;49125;48.812;9.206;2022-07-29T02:41:19;19.80;98.00
63039;DHT22;49125;48.812;9.206;2022-07-29T02:43:47;19.60;98.10
63039;DHT22;49125;48.812;9.206;2022-07-29T02:46:18;19.60;98.00
63039;DHT22;49125;48.812;9.206;2022-07-29T02:48:54;19.60;98.20
63039;DHT22;49125;48.812;9.206;2022-07-29T02:51:28;19.50;98.20
63039;DHT22;49125;48.812;9.206;2022-07-29T02:53:58;19.50;98.40
63039;DHT22;49125;48.812;9.206;2022-07-29T02:56:28;19.40;98.40
63039;DHT22;49125;48.812;9.206;2022-07-29T02:59:02;19.40;98.70
63039;DHT22;49125;48.812;9.206;2022-07-29T03:01:32;19.40;98.60
63039;DHT22;49125;48.812;9.206;2022-07-29T03:04:02;19.30;98.80
63039;DHT22;49125;48.812;9.206;2022-07-29T03:06:28;19.30;98.90
63039;DHT22;49125;48.812;9.206;2022-07-29T03:08:55;19.20;98.90
63039;DHT22;49125;48.812;9.206;2022-07-29T03:11:22;19.30;98.80
63039;DHT22;49125;48.812;9.206;2022-07-29T03:13:48;19.20;99.00
63039;DHT22;49125;48.812;9.206;2022-07-29T03:16:14;19.20;99.00
63039;DHT22;49125;48.812;9.206;2022-07-29T03:18:40;19.20;99.20
63039;DHT22;49125;48.812;9.206;2022-07-29T03:21:06;19.10;99.30
63039;DHT22;49125;48.812;9.206;2022-07-29T03:23:33;19.10;99.30
63039;DHT22;49125;48.812;9.206;2022-07-29T03:25:58;19.10;99.20
63039;DHT22;49125;48.812;9.206;2022-07-29T03:28:24;19.10;99.40
63039;DHT22;49125;48.812;9.206;2022-07-29T03:30:51;19.10;99.30
63039;DHT22;49125;48.812;9.206;2022-07-29T03:33:17;19.10;99.50
63039;DHT22;49125;48.812;9.206;2022-07-29T03:35:42;19.10;99.90
63039;DHT22;49125;48.812;9.206;2022-07-29T03:38:08;19.10;99.90
63039;DHT22;49125;48.812;9.206;2022-07-29T03:40:38;19.10;99.90
63039;DHT22;49125;48.812;9.206;2022-07-29T03:43:06;19.00;99.90
63039;DHT22;49125;48.812;9.206;2022-07-29T03:45:33;19.10;99.90
63039;DHT22;49125;48.812;9.206;2022-07-29T03:48:07;19.10;99.90
63039;DHT22;49125;48.812;9.206;2022-07-29T03:50:34;19.10;99.90
63039;DHT22;49125;48.812;9.206;2022-07-29T03:53:00;19.10;99.90
63039;DHT22;49125;48.812;9.206;2022-07-29T03:55:28;19.10;99.90
63039;DHT22;49125;48.812;9.206;2022-07-29T03:57:57;19.10;99.90
63039;DHT22;49125;48.812;9.206;2022-07-29T04:00:24;19.10;99.90
63039;DHT22;49125;48.812;9.206;2022-07-29T04:02:50;19.10;99.90
63039;DHT22;49125;48.812;9.206;2022-07-29T04:05:17;19.10;99.90
63039;DHT22;49125;48.812;9.206;2022-07-29T04:07:47;19.00;99.90
63039;DHT22;49125;48.812;9.206;2022-07-29T04:10:13;19.00;99.90
63039;DHT22;49125;48.812;9.206;2022-07-29T04:12:41;19.00;99.90
63039;DHT22;49125;48.812;9.206;2022-07-29T04:15:07;19.00;99.90
63039;DHT22;49125;48.812;9.206;2022-07-29T04:17:33;19.00;99.90
63039;DHT22;49125;48.812;9.206;2022-07-29T04:19:58;19.10;99.90
63039;DHT22;49125;48.812;9.206;2022-07-29T04:22:24;19.00;99.90
63039;DHT22;49125;48.812;9.206;2022-07-29T04:24:49;19.00;99.90
63039;DHT22;49125;48.812;9.206;2022-07-29T04:27:15;19.00;99.90
63039;DHT22;49125;48.812;9.206;2022-07-29T04:29:40;19.00;99.90
63039;DHT22;49125;48.812;9.206;2022-07-29T04:32:06;19.00;99.90
63039;DHT22;49125;48.812;9.206;2022-07-29T04:34:32;19.00;99.90
63039;DHT22;49125;48.812;9.206;2022-07-29T04:36:57;19.10;99.90
63039;DHT22;49125;48.812;9.206;2022-07-29T04:39:23;19.10;99.90
63039;DHT22;49125;48.812;9.206;2022-07-29T04:41:49;19.20;99.90
63039;DHT22;49125;48.812;9.206;2022-07-29T04:44:15;19.20;99.90
63039;DHT22;49125;48.812;9.206;2022-07-29T04:46:41;19.20;99.90
63039;DHT22;49125;48.812;9.206;2022-07-29T04:49:06;19.20;99.90
63039;DHT22;49125;48.812;9.206;2022-07-29T04:51:32;19.20;99.90
63039;DHT22;49125;48.812;9.206;2022-07-29T04:53:58;19.30;99.90
63039;DHT22;49125;48.812;9.206;2022-07-29T04:56:23;19.40;99.90
63039;DHT22;49125;48.812;9.206;2022-07-29T04:58:49;19.40;99.90
63039;DHT22;49125;48.812;9.206;2022-07-29T05:01:14;19.50;99.90
63039;DHT22;49125;48.812;9.206;2022-07-29T05:03:40;19.60;99.90
63039;DHT22;49125;48.812;9.206;2022-07-29T05:06:06;19.60;99.90
63039;DHT22;49125;48.812;9.206;2022-07-29T05:08:31;19.70;99.90
63039;DHT22;49125;48.812;9.206;2022-07-29T05:10:57;19.80;99.90
63039;DHT22;49125;48.812;9.206;2022-07-29T05:13:23;19.90;99.90
63039;DHT22;49125;48.812;9.206;2022-07-29T05:15:48;20.10;99.70
63039;DHT22;49125;48.812;9.206;2022-07-29T05:18:14;20.20;99.50
63039;DHT22;49125;48.812;9.206;2022-07-29T05:20:39;20.30;99.20
63039;DHT22;49125;48.812;9.206;2022-07-29T05:23:05;20.50;98.80
63039;DHT22;49125;48.812;9.206;2022-07-29T05:25:31;20.60;98.70
63039;DHT22;49125;48.812;9.206;2022-07-29T05:27:57;20.80;98.30
63039;DHT22;49125;48.812;9.206;2022-07-29T05:30:23;20.90;98.00
63039;DHT22;49125;48.812;9.206;2022-07-29T05:32:49;21.00;97.70
63039;DHT22;49125;48.812;9.206;2022-07-29T05:35:15;21.10;97.90
63039;DHT22;49125;48.812;9.206;2022-07-29T05:37:41;21.10;97.70
63039;DHT22;49125;48.812;9.206;2022-07-29T05:40:07;21.20;97.50
63039;DHT22;49125;48.812;9.206;2022-07-29T05:42:33;21.30;97.50
63039;DHT22;49125;48.812;9.206;2022-07-29T05:44:59;21.40;97.50
63039;DHT22;49125;48.812;9.206;2022-07-29T05:47:25;21.50;97.00
63039;DHT22;49125;48.812;9.206;2022-07-29T05:49:51;21.60;96.30
63039;DHT22;49125;48.812;9.206;2022-07-29T05:52:16;21.70;96.60
63039;DHT22;49125;48.812;9.206;2022-07-29T05:54:42;21.90;96.30
63039;DHT22;49125;48.812;9.206;2022-07-29T05:57:14;22.00;96.10
63039;DHT22;49125;48.812;9.206;2022-07-29T05:59:40;22.10;95.80
63039;DHT22;49125;48.812;9.206;2022-07-29T06:02:05;22.20;95.90
63039;DHT22;49125;48.812;9.206;2022-07-29T06:04:32;22.30;95.30
63039;DHT22;49125;48.812;9.206;2022-07-29T06:06:58;22.50;95.40
63039;DHT22;49125;48.812;9.206;2022-07-29T06:09:24;22.70;95.50
63039;DHT22;49125;48.812;9.206;2022-07-29T06:11:51;22.90;94.80
63039;DHT22;49125;48.812;9.206;2022-07-29T06:14:17;23.10;94.80
63039;DHT22;49125;48.812;9.206;2022-07-29T06:16:43;23.30;94.10
63039;DHT22;49125;48.812;9.206;2022-07-29T06:19:08;23.50;93.60
63039;DHT22;49125;48.812;9.206;2022-07-29T06:21:34;23.70;93.40
63039;DHT22;49125;48.812;9.206;2022-07-29T06:24:00;24.00;93.70
63039;DHT22;49125;48.812;9.206;2022-07-29T06:26:25;24.30;92.50
63039;DHT22;49125;48.812;9.206;2022-07-29T06:28:51;24.50;92.80
63039;DHT22;49125;48.812;9.206;2022-07-29T06:31:16;24.80;92.80
63039;DHT22;49125;48.812;9.206;2022-07-29T06:33:42;25.20;91.80
63039;DHT22;49125;48.812;9.206;2022-07-29T06:36:08;25.40;91.40
63039;DHT22;49125;48.812;9.206;2022-07-29T06:38:33;25.60;89.90
63039;DHT22;49125;48.812;9.206;2022-07-29T06:41:00;25.80;89.70
63039;DHT22;49125;48.812;9.206;2022-07-29T06:43:30;25.90;89.70
63039;DHT22;49125;48.812;9.206;2022-07-29T06:46:01;26.10;89.30
63039;DHT22;49125;48.812;9.206;2022-07-29T06:48:28;26.30;87.90
63039;DHT22;49125;48.812;9.206;2022-07-29T06:50:54;26.40;86.90
63039;DHT22;49125;48.812;9.206;2022-07-29T06:53:20;26.50;87.80
63039;DHT22;49125;48.812;9.206;2022-07-29T06:55:45;26.60;86.50
63039;DHT22;49125;48.812;9.206;2022-07-29T06:58:11;26.70;84.70
63039;DHT22;49125;48.812;9.206;2022-07-29T07:00:40;26.80;84.50
63039;DHT22;49125;48.812;9.206;2022-07-29T07:03:05;26.80;83.50
63039;DHT22;49125;48.812;9.206;2022-07-29T07:05:31;26.90;83.70
63039;DHT22;49125;48.812;9.206;2022-07-29T07:07:56;27.00;82.40
63039;DHT22;49125;48.812;9.206;2022-07-29T07:10:22;27.20;82.80
63039;DHT22;49125;48.812;9.206;2022-07-29T07:12:47;27.20;80.50
63039;DHT22;49125;48.812;9.206;2022-07-29T07:15:13;27.40;81.60
63039;DHT22;49125;48.812;9.206;2022-07-29T07:17:42;27.40;80.40
63039;DHT22;49125;48.812;9.206;2022-07-29T07:20:08;27.40;80.50
63039;DHT22;49125;48.812;9.206;2022-07-29T07:22:34;27.30;78.50
63039;DHT22;49125;48.812;9.206;2022-07-29T07:24:59;27.00;79.80
63039;DHT22;49125;48.812;9.206;2022-07-29T07:27:25;27.00;81.90
63039;DHT22;49125;48.812;9.206;2022-07-29T07:29:51;27.00;80.00
63039;DHT22;49125;48.812;9.206;2022-07-29T07:32:17;27.20;80.70
63039;DHT22;49125;48.812;9.206;2022-07-29T07:34:43;27.50;80.40
63039;DHT22;49125;48.812;9.206;2022-07-29T07:37:09;27.60;78.60
63039;DHT22;49125;48.812;9.206;2022-07-29T07:39:34;27.60;78.30
63039;DHT22;49125;48.812;9.206;2022-07-29T07:42:00;27.60;78.60
63039;DHT22;49125;48.812;9.206;2022-07-29T07:44:26;27.80;78.30
63039;DHT22;49125;48.812;9.206;2022-07-29T07:46:51;27.90;77.00
63039;DHT22;49125;48.812;9.206;2022-07-29T07:49:17;27.90;77.90
63039;DHT22;49125;48.812;9.206;2022-07-29T07:51:43;28.00;78.20
63039;DHT22;49125;48.812;9.206;2022-07-29T07:54:08;28.20;77.10
63039;DHT22;49125;48.812;9.206;2022-07-29T07:56:34;28.50;76.00
63039;DHT22;49125;48.812;9.206;2022-07-29T07:58:59;28.60;75.50
63039;DHT22;49125;48.812;9.206;2022-07-29T08:01:25;28.80;75.60
63039;DHT22;49125;48.812;9.206;2022-07-29T08:03:50;28.90;74.80
63039;DHT22;49125;48.812;9.206;2022-07-29T08:06:16;28.80;74.20
63039;DHT22;49125;48.812;9.206;2022-07-29T08:08:41;28.70;73.90
63039;DHT22;49125;48.812;9.206;2022-07-29T08:11:07;28.80;73.70
63039;DHT22;49125;48.812;9.206;2022-07-29T08:13:32;28.80;74.20
63039;DHT22;49125;48.812;9.206;2022-07-29T08:15:58;29.00;71.60
63039;DHT22;49125;48.812;9.206;2022-07-29T08:18:35;29.00;70.30
63039;DHT22;49125;48.812;9.206;2022-07-29T08:21:01;28.90;71.50
63039;DHT22;49125;48.812;9.206;2022-07-29T08:23:27;29.00;69.40
63039;DHT22;49125;48.812;9.206;2022-07-29T08:26:00;29.10;71.50
63039;DHT22;49125;48.812;9.206;2022-07-29T08:28:26;29.50;69.90
63039;DHT22;49125;48.812;9.206;2022-07-29T08:30:51;29.70;68.00
63039;DHT22;49125;48.812;9.206;2022-07-29T08:33:17;29.50;69.60
63039;DHT22;49125;48.812;9.206;2022-07-29T08:35:43;29.70;70.00
63039;DHT22;49125;48.812;9.206;2022-07-29T08:38:09;29.60;68.70
63039;DHT22;49125;48.812;9.206;2022-07-29T08:40:35;29.70;70.30
63039;DHT22;49125;48.812;9.206;2022-07-29T08:43:05;29.70;69.40
63039;DHT22;49125;48.812;9.206;2022-07-29T08:45:42;29.80;68.20
63039;DHT22;49125;48.812;9.206;2022-07-29T08:48:09;29.90;66.50
63039;DHT22;49125;48.812;9.206;2022-07-29T08:50:35;29.60;66.90
63039;DHT22;49125;48.812;9.206;2022-07-29T08:53:02;29.80;66.10
63039;DHT22;49125;48.812;9.206;2022-07-29T08:55:28;29.90;67.50
63039;DHT22;49125;48.812;9.206;2022-07-29T08:57:54;29.90;67.30
63039;DHT22;49125;48.812;9.206;2022-07-29T09:00:24;30.00;66.50
63039;DHT22;49125;48.812;9.206;2022-07-29T09:02:56;30.20;64.20
63039;DHT22;49125;48.812;9.206;2022-07-29T09:05:23;30.20;63.00
63039;DHT22;49125;48.812;9.206;2022-07-29T09:07:50;30.30;62.80
63039;DHT22;49125;48.812;9.206;2022-07-29T09:10:16;30.00;63.50
63039;DHT22;49125;48.812;9.206;2022-07-29T09:12:41;30.10;64.50
63039;DHT22;49125;48.812;9.206;2022-07-29T09:15:07;30.50;64.90
63039;DHT22;49125;48.812;9.206;2022-07-29T09:17:41;30.90;63.60
63039;DHT22;49125;48.812;9.206;2022-07-29T09:20:18;31.20;60.00
63039;DHT22;49125;48.812;9.206;2022-07-29T09:22:45;31.20;54.80
63039;DHT22;49125;48.812;9.206;2022-07-29T09:25:38;31.10;57.30
63039;DHT22;49125;48.812;9.206;2022-07-29T09:28:12;31.20;56.10
63039;DHT22;49125;48.812;9.206;2022-07-29T09:30:58;31.40;55.20
63039;DHT22;49125;48.812;9.206;2022-07-29T09:33:31;31.70;53.50
63039;DHT22;49125;48.812;9.206;2022-07-29T09:36:07;31.60;54.00
63039;DHT22;49125;48.812;9.206;2022-07-29T09:38:34;31.50;54.30
63039;DHT22;49125;48.812;9.206;2022-07-29T09:41:03;31.70;55.70
63039;DHT22;49125;48.812;9.206;2022-07-29T09:43:29;32.00;51.00
63039;DHT22;49125;48.812;9.206;2022-07-29T09:45:55;31.80;52.50
63039;DHT22;49125;48.812;9.206;2022-07-29T09:48:25;31.60;53.10
63039;DHT22;49125;48.812;9.206;2022-07-29T09:50:51;31.80;54.80
63039;DHT22;49125;48.812;9.206;2022-07-29T09:53:37;32.10;52.00
63039;DHT22;49125;48.812;9.206;2022-07-29T09:56:06;32.30;51.70
63039;DHT22;49125;48.812;9.206;2022-07-29T09:58:32;32.40;52.70
63039;DHT22;49125;48.812;9.206;2022-07-29T10:01:01;32.30;52.00
63039;DHT22;49125;48.812;9.206;2022-07-29T10:03:27;32.50;51.40
63039;DHT22;49125;48.812;9.206;2022-07-29T10:06:11;32.30;52.20
63039;DHT22;49125;48.812;9.206;2022-07-29T10:08:38;32.10;50.90
63039;DHT22;49125;48.812;9.206;2022-07-29T10:11:15;31.60;51.10
63039;DHT22;49125;48.812;9.206;2022-07-29T10:13:43;31.10;53.00
63039;DHT22;49125;48.812;9.206;2022-07-29T10:16:09;31.10;53.50
63039;DHT22;49125;48.812;9.206;2022-07-29T10:18:35;30.70;51.40
63039;DHT22;49125;48.812;9.206;2022-07-29T10:21:01;30.80;53.30
63039;DHT22;49125;48.812;9.206;2022-07-29T10:23:28;30.90;53.30
63039;DHT22;49125;48.812;9.206;2022-07-29T10:25:54;31.10;54.30
63039;DHT22;49125;48.812;9.206;2022-07-29T10:28:20;31.10;54.40
63039;DHT22;49125;48.812;9.206;2022-07-29T10:30:46;30.90;54.20
63039;DHT22;49125;48.812;9.206;2022-07-29T10:33:35;30.80;54.50
63039;DHT22;49125;48.812;9.206;2022-07-29T10:39:48;30.30;56.90
63039;DHT22;49125;48.812;9.206;2022-07-29T10:44:46;29.50;55.90
63039;DHT22;49125;48.812;9.206;2022-07-29T10:47:25;29.10;57.20
63039;DHT22;49125;48.812;9.206;2022-07-29T10:49:59;28.90;57.80
63039;DHT22;49125;48.812;9.206;2022-07-29T10:52:37;28.70;57.40
63039;DHT22;49125;48.812;9.206;2022-07-29T10:58:24;28.00;57.70
63039;DHT22;49125;48.812;9.206;2022-07-29T11:00:54;27.80;60.30
63039;DHT22;49125;48.812;9.206;2022-07-29T11:03:58;27.50;59.80
63039;DHT22;49125;48.812;9.206;2022-07-29T11:06:24;27.30;61.90
63039;DHT22;49125;48.812;9.206;2022-07-29T11:09:17;27.00;62.20
63039;DHT22;49125;48.812;9.206;2022-07-29T11:11:49;26.90;65.70
63039;DHT22;49125;48.812;9.206;2022-07-29T11:14:14;26.70;68.30
63039;DHT22;49125;48.812;9.206;2022-07-29T11:17:04;26.50;71.80
63039;DHT22;49125;48.812;9.206;2022-07-29T11:19:30;26.30;74.20
63039;DHT22;49125;48.812;9.206;2022-07-29T11:21:56;26.00;74.00
63039;DHT22;49125;48.812;9.206;2022-07-29T11:24:27;25.50;76.40
63039;DHT22;49125;48.812;9.206;2022-07-29T11:27:30;25.20;78.60
63039;DHT22;49125;48.812;9.206;2022-07-29T11:29:58;24.80;83.60
63039;DHT22;49125;48.812;9.206;2022-07-29T11:32:49;24.50;83.70
63039;DHT22;49125;48.812;9.206;2022-07-29T11:35:18;24.30;85.80
63039;DHT22;49125;48.812;9.206;2022-07-29T11:37:47;24.40;88.20
63039;DHT22;49125;48.812;9.206;2022-07-29T11:40:32;24.50;88.10
63039;DHT22;49125;48.812;9.206;2022-07-29T11:42:58;24.50;88.90
63039;DHT22;49125;48.812;9.206;2022-07-29T11:45:25;24.50;89.00
63039;DHT22;49125;48.812;9.206;2022-07-29T11:47:57;24.50;89.00
63039;DHT22;49125;48.812;9.206;2022-07-29T11:50:36;24.40;89.10
63039;DHT22;49125;48.812;9.206;2022-07-29T11:53:09;24.50;88.90
63039;DHT22;49125;48.812;9.206;2022-07-29T11:55:37;24.60;90.00
63039;DHT22;49125;48.812;9.206;2022-07-29T11:58:03;24.60;89.50
63039;DHT22;49125;48.812;9.206;2022-07-29T12:00:32;24.60;88.20
63039;DHT22;49125;48.812;9.206;2022-07-29T12:02:59;24.50;86.40
63039;DHT22;49125;48.812;9.206;2022-07-29T12:05:36;24.60;85.50
63039;DHT22;49125;48.812;9.206;2022-07-29T12:08:10;24.60;87.00
63039;DHT22;49125;48.812;9.206;2022-07-29T12:10:36;24.70;86.50
63039;DHT22;49125;48.812;9.206;2022-07-29T12:13:02;24.80;83.30
63039;DHT22;49125;48.812;9.206;2022-07-29T12:15:28;24.80;82.60
63039;DHT22;49125;48.812;9.206;2022-07-29T12:17:53;24.90;83.30
63039;DHT22;49125;48.812;9.206;2022-07-29T12:20:26;24.80;80.60
63039;DHT22;49125;48.812;9.206;2022-07-29T12:22:53;25.00;77.10
63039;DHT22;49125;48.812;9.206;2022-07-29T12:25:20;25.60;80.00
63039;DHT22;49125;48.812;9.206;2022-07-29T12:27:57;26.30;76.40
63039;DHT22;49125;48.812;9.206;2022-07-29T12:30:37;26.50;77.00
63039;DHT22;49125;48.812;9.206;2022-07-29T12:33:11;26.70;73.80
63039;DHT22;49125;48.812;9.206;2022-07-29T12:35:37;26.50;74.90
63039;DHT22;49125;48.812;9.206;2022-07-29T12:38:03;26.20;73.80
63039;DHT22;49125;48.812;9.206;2022-07-29T12:40:29;25.70;73.00
63039;DHT22;49125;48.812;9.206;2022-07-29T12:43:09;25.30;74.20
63039;DHT22;49125;48.812;9.206;2022-07-29T12:45:38;25.20;75.60
63039;DHT22;49125;48.812;9.206;2022-07-29T12:48:05;25.10;75.50
63039;DHT22;49125;48.812;9.206;2022-07-29T12:50:34;25.00;76.70
63039;DHT22;49125;48.812;9.206;2022-07-29T12:53:12;25.00;77.20
63039;DHT22;49125;48.812;9.206;2022-07-29T12:55:44;24.80;78.60
63039;DHT22;49125;48.812;9.206;2022-07-29T12:58:13;24.60;78.90
63039;DHT22;49125;48.812;9.206;2022-07-29T13:00:39;24.50;79.40
63039;DHT22;49125;48.812;9.206;2022-07-29T13:03:04;24.40;80.10
63039;DHT22;49125;48.812;9.206;2022-07-29T13:05:41;24.40;79.70
63039;DHT22;49125;48.812;9.206;2022-07-29T13:08:14;24.30;78.90
63039;DHT22;49125;48.812;9.206;2022-07-29T13:10:40;24.30;81.10
63039;DHT22;49125;48.812;9.206;2022-07-29T13:13:15;24.20;80.20
63039;DHT22;49125;48.812;9.206;2022-07-29T13:15:43;24.20;80.70
63039;DHT22;49125;48.812;9.206;2022-07-29T13:18:29;24.10;81.10
63039;DHT22;49125;48.812;9.206;2022-07-29T13:20:55;24.10;81.90
63039;DHT22;49125;48.812;9.206;2022-07-29T13:23:20;24.00;81.20
63039;DHT22;49125;48.812;9.206;2022-07-29T13:25:46;24.00;81.40
63039;DHT22;49125;48.812;9.206;2022-07-29T13:28:12;23.90;82.80
63039;DHT22;49125;48.812;9.206;2022-07-29T13:30:39;23.80;84.50
63039;DHT22;49125;48.812;9.206;2022-07-29T13:33:05;23.60;87.90
63039;DHT22;49125;48.812;9.206;2022-07-29T13:35:30;23.60;88.10
63039;DHT22;49125;48.812;9.206;2022-07-29T13:37:56;23.50;90.40
63039;DHT22;49125;48.812;9.206;2022-07-29T13:40:21;23.40;91.00
63039;DHT22;49125;48.812;9.206;2022-07-29T13:42:47;23.40;91.70
63039;DHT22;49125;48.812;9.206;2022-07-29T13:45:13;23.30;92.30
63039;DHT22;49125;48.812;9.206;2022-07-29T13:47:39;23.20;93.20
63039;DHT22;49125;48.812;9.206;2022-07-29T13:50:06;23.30;93.40
63039;DHT22;49125;48.812;9.206;2022-07-29T13:52:32;23.50;94.40
63039;DHT22;49125;48.812;9.206;2022-07-29T13:54:57;23.70;93.70
63039;DHT22;49125;48.812;9.206;2022-07-29T13:57:23;23.90;94.10
63039;DHT22;49125;48.812;9.206;2022-07-29T13:59:49;24.10;93.60
63039;DHT22;49125;48.812;9.206;2022-07-29T14:02:16;24.40;93.20
63039;DHT22;49125;48.812;9.206;2022-07-29T14:04:42;24.70;92.60
63039;DHT22;49125;48.812;9.206;2022-07-29T14:07:07;25.00;92.60
63039;DHT22;49125;48.812;9.206;2022-07-29T14:09:33;25.30;92.00
63039;DHT22;49125;48.812;9.206;2022-07-29T14:11:59;25.50;91.30
63039;DHT22;49125;48.812;9.206;2022-07-29T14:14:24;25.70;91.70
63039;DHT22;49125;48.812;9.206;2022-07-29T14:16:50;25.80;91.20
63039;DHT22;49125;48.812;9.206;2022-07-29T14:19:16;26.00;90.40
63039;DHT22;49125;48.812;9.206;2022-07-29T14:21:44;26.10;90.00
63039;DHT22;49125;48.812;9.206;2022-07-29T14:24:09;26.10;89.60
63039;DHT22;49125;48.812;9.206;2022-07-29T14:26:35;26.30;90.50
63039;DHT22;49125;48.812;9.206;2022-07-29T14:29:00;26.40;89.60
63039;DHT22;49125;48.812;9.206;2022-07-29T14:31:26;26.40;90.10
63039;DHT22;49125;48.812;9.206;2022-07-29T14:33:51;26.40;90.00
63039;DHT22;49125;48.812;9.206;2022-07-29T14:36:17;26.40;90.30
63039;DHT22;49125;48.812;9.206;2022-07-29T14:38:42;26.50;90.60
63039;DHT22;49125;48.812;9.206;2022-07-29T14:41:08;26.70;90.30
63039;DHT22;49125;48.812;9.206;2022-07-29T14:43:34;26.70;89.50
63039;DHT22;49125;48.812;9.206;2022-07-29T14:46:01;26.70;90.30
63039;DHT22;49125;48.812;9.206;2022-07-29T14:48:27;26.80;89.70
63039;DHT22;49125;48.812;9.206;2022-07-29T14:50:52;26.90;90.00
63039;DHT22;49125;48.812;9.206;2022-07-29T14:53:18;26.80;89.80
63039;DHT22;49125;48.812;9.206;2022-07-29T14:55:44;26.90;89.70
63039;DHT22;49125;48.812;9.206;2022-07-29T14:58:10;26.80;89.10
63039;DHT22;49125;48.812;9.206;2022-07-29T15:00:36;26.90;89.20
63039;DHT22;49125;48.812;9.206;2022-07-29T15:03:02;27.00;90.10
63039;DHT22;49125;48.812;9.206;2022-07-29T15:05:29;27.00;89.00
63039;DHT22;49125;48.812;9.206;2022-07-29T15:07:55;27.00;88.10
63039;DHT22;49125;48.812;9.206;2022-07-29T15:10:21;27.00;87.60
63039;DHT22;49125;48.812;9.206;2022-07-29T15:12:46;26.80;86.70
63039;DHT22;49125;48.812;9.206;2022-07-29T15:15:12;26.60;87.90
63039;DHT22;49125;48.812;9.206;2022-07-29T15:17:37;26.60;87.70
63039;DHT22;49125;48.812;9.206;2022-07-29T15:20:03;26.50;88.20
63039;DHT22;49125;48.812;9.206;2022-07-29T15:22:29;26.50;89.30
63039;DHT22;49125;48.812;9.206;2022-07-29T15:24:55;26.50;87.80
63039;DHT22;49125;48.812;9.206;2022-07-29T15:27:20;26.50;88.60
63039;DHT22;49125;48.812;9.206;2022-07-29T15:29:46;26.50;87.90
63039;DHT22;49125;48.812;9.206;2022-07-29T15:32:11;26.40;88.40
63039;DHT22;49125;48.812;9.206;2022-07-29T15:34:37;26.40;89.80
63039;DHT22;49125;48.812;9.206;2022-07-29T15:37:04;26.20;89.40
63039;DHT22;49125;48.812;9.206;2022-07-29T15:39:29;26.10;89.80
63039;DHT22;49125;48.812;9.206;2022-07-29T15:41:55;26.00;90.00
63039;DHT22;49125;48.812;9.206;2022-07-29T15:44:21;25.80;90.00
63039;DHT22;49125;48.812;9.206;2022-07-29T15:46:47;25.70;90.60
63039;DHT22;49125;48.812;9.206;2022-07-29T15:49:28;25.60;90.70
63039;DHT22;49125;48.812;9.206;2022-07-29T15:52:04;25.60;90.60
63039;DHT22;49125;48.812;9.206;2022-07-29T15:54:35;25.50;90.90